sensor_id;sensor_type;location;lat;lon;timestamp;P1;durP1;ratioP1;P2;durP2;ratioP2
60203;SDS011;46068;52.132;4.618;2023-07-13T00:02:09;19.05;;;3.35;;
60203;SDS011;46068;52.132;4.618;2023-07-13T00:04:36;15.52;;;3.13;;
60203;SDS011;46068;52.132;4.618;2023-07-13T00:07:03;19.40;;;4.03;;
60203;SDS011;46068;52.132;4.618;2023-07-13T00:09:29;23.63;;;3.72;;
60203;SDS011;46068;52.132;4.618;2023-07-13T00:11:56;21.88;;;3.83;;
60203;SDS011;46068;52.132;4.618;2023-07-13T00:14:23;22.35;;;3.80;;
60203;SDS011;46068;52.132;4.618;2023-07-13T00:16:50;23.60;;;3.45;;
60203;SDS011;46068;52.132;4.618;2023-07-13T00:19:17;25.45;;;3.90;;
60203;SDS011;46068;52.132;4.618;2023-07-13T00:21:44;17.60;;;2.90;;
60203;SDS011;46068;52.132;4.618;2023-07-13T00:24:11;15.40;;;3.30;;
60203;SDS011;46068;52.132;4.618;2023-07-13T00:26:38;25.15;;;3.60;;
60203;SDS011;46068;52.132;4.618;2023-07-13T00:29:05;19.08;;;3.40;;
60203;SDS011;46068;52.132;4.618;2023-07-13T00:31:33;23.48;;;3.50;;
60203;SDS011;46068;52.132;4.618;2023-07-13T00:34:00;20.90;;;2.97;;
60203;SDS011;46068;52.132;4.618;2023-07-13T00:36:29;23.25;;;4.00;;
60203;SDS011;46068;52.132;4.618;2023-07-13T00:38:55;18.98;;;3.08;;
60203;SDS011;46068;52.132;4.618;2023-07-13T00:41:21;19.65;;;3.03;;
60203;SDS011;46068;52.132;4.618;2023-07-13T00:43:48;24.80;;;3.78;;
60203;SDS011;46068;52.132;4.618;2023-07-13T00:46:25;13.23;;;2.40;;
60203;SDS011;46068;52.132;4.618;2023-07-13T00:48:52;18.30;;;3.17;;
60203;SDS011;46068;52.132;4.618;2023-07-13T00:51:27;15.63;;;3.17;;
60203;SDS011;46068;52.132;4.618;2023-07-13T00:53:56;16.45;;;2.92;;
60203;SDS011;46068;52.132;4.618;2023-07-13T00:56:24;15.95;;;2.83;;
60203;SDS011;46068;52.132;4.618;2023-07-13T00:58:50;17.38;;;3.05;;
60203;SDS011;46068;52.132;4.618;2023-07-13T01:01:18;15.23;;;2.88;;
60203;SDS011;46068;52.132;4.618;2023-07-13T01:03:44;17.25;;;2.67;;
60203;SDS011;46068;52.132;4.618;2023-07-13T01:06:11;16.08;;;3.08;;
60203;SDS011;46068;52.132;4.618;2023-07-13T01:08:38;17.33;;;2.60;;
60203;SDS011;46068;52.132;4.618;2023-07-13T01:11:06;15.90;;;2.47;;
60203;SDS011;46068;52.132;4.618;2023-07-13T01:13:34;16.27;;;3.00;;
60203;SDS011;46068;52.132;4.618;2023-07-13T01:16:02;18.42;;;2.80;;
60203;SDS011;46068;52.132;4.618;2023-07-13T01:18:29;12.50;;;1.98;;
60203;SDS011;46068;52.132;4.618;2023-07-13T01:20:58;16.85;;;3.00;;
60203;SDS011;46068;52.132;4.618;2023-07-13T01:23:25;10.82;;;2.40;;
60203;SDS011;46068;52.132;4.618;2023-07-13T01:25:52;12.05;;;1.95;;
60203;SDS011;46068;52.132;4.618;2023-07-13T01:28:18;13.55;;;2.53;;
60203;SDS011;46068;52.132;4.618;2023-07-13T01:30:46;10.27;;;1.90;;
60203;SDS011;46068;52.132;4.618;2023-07-13T01:33:13;10.25;;;2.17;;
60203;SDS011;46068;52.132;4.618;2023-07-13T01:35:40;11.70;;;1.98;;
60203;SDS011;46068;52.132;4.618;2023-07-13T01:38:08;9.27;;;2.10;;
60203;SDS011;46068;52.132;4.618;2023-07-13T01:40:35;12.25;;;1.63;;
60203;SDS011;46068;52.132;4.618;2023-07-13T01:43:02;11.73;;;2.20;;
60203;SDS011;46068;52.132;4.618;2023-07-13T01:45:28;10.68;;;1.50;;
60203;SDS011;46068;52.132;4.618;2023-07-13T01:47:55;8.75;;;1.70;;
60203;SDS011;46068;52.132;4.618;2023-07-13T01:50:21;8.75;;;1.60;;
60203;SDS011;46068;52.132;4.618;2023-07-13T01:52:47;11.82;;;1.60;;
60203;SDS011;46068;52.132;4.618;2023-07-13T01:55:15;11.73;;;1.70;;
60203;SDS011;46068;52.132;4.618;2023-07-13T01:57:42;12.00;;;1.67;;
60203;SDS011;46068;52.132;4.618;2023-07-13T02:00:09;5.30;;;1.48;;
60203;SDS011;46068;52.132;4.618;2023-07-13T02:02:36;8.27;;;2.08;;
60203;SDS011;46068;52.132;4.618;2023-07-13T02:05:02;7.80;;;1.58;;
60203;SDS011;46068;52.132;4.618;2023-07-13T02:07:29;7.90;;;1.83;;
60203;SDS011;46068;52.132;4.618;2023-07-13T02:09:55;8.85;;;1.98;;
60203;SDS011;46068;52.132;4.618;2023-07-13T02:12:23;8.15;;;1.85;;
60203;SDS011;46068;52.132;4.618;2023-07-13T02:14:49;7.38;;;1.40;;
60203;SDS011;46068;52.132;4.618;2023-07-13T02:17:16;5.95;;;1.40;;
60203;SDS011;46068;52.132;4.618;2023-07-13T02:19:42;7.05;;;1.67;;
60203;SDS011;46068;52.132;4.618;2023-07-13T02:22:09;11.23;;;1.73;;
60203;SDS011;46068;52.132;4.618;2023-07-13T02:24:35;6.35;;;1.60;;
60203;SDS011;46068;52.132;4.618;2023-07-13T02:27:03;6.47;;;1.60;;
60203;SDS011;46068;52.132;4.618;2023-07-13T02:29:31;7.93;;;2.08;;
60203;SDS011;46068;52.132;4.618;2023-07-13T02:31:57;9.90;;;1.83;;
60203;SDS011;46068;52.132;4.618;2023-07-13T02:34:24;11.15;;;1.95;;
60203;SDS011;46068;52.132;4.618;2023-07-13T02:36:50;9.98;;;2.13;;
60203;SDS011;46068;52.132;4.618;2023-07-13T02:39:16;7.47;;;1.52;;
60203;SDS011;46068;52.132;4.618;2023-07-13T02:41:43;10.38;;;1.77;;
60203;SDS011;46068;52.132;4.618;2023-07-13T02:44:09;9.52;;;1.80;;
60203;SDS011;46068;52.132;4.618;2023-07-13T02:46:40;7.82;;;2.03;;
60203;SDS011;46068;52.132;4.618;2023-07-13T02:49:06;5.30;;;1.35;;
60203;SDS011;46068;52.132;4.618;2023-07-13T02:51:33;5.55;;;1.30;;
60203;SDS011;46068;52.132;4.618;2023-07-13T02:53:59;5.65;;;1.48;;
60203;SDS011;46068;52.132;4.618;2023-07-13T02:56:27;7.22;;;1.35;;
60203;SDS011;46068;52.132;4.618;2023-07-13T02:58:53;9.35;;;1.73;;
60203;SDS011;46068;52.132;4.618;2023-07-13T03:01:20;9.77;;;1.33;;
60203;SDS011;46068;52.132;4.618;2023-07-13T03:03:48;4.85;;;1.27;;
60203;SDS011;46068;52.132;4.618;2023-07-13T03:06:15;5.63;;;1.30;;
60203;SDS011;46068;52.132;4.618;2023-07-13T03:08:42;7.43;;;1.50;;
60203;SDS011;46068;52.132;4.618;2023-07-13T03:11:11;7.68;;;1.52;;
60203;SDS011;46068;52.132;4.618;2023-07-13T03:13:37;7.03;;;1.38;;
60203;SDS011;46068;52.132;4.618;2023-07-13T03:16:04;14.05;;;1.80;;
60203;SDS011;46068;52.132;4.618;2023-07-13T03:18:30;9.65;;;1.42;;
60203;SDS011;46068;52.132;4.618;2023-07-13T03:20:58;10.15;;;1.70;;
60203;SDS011;46068;52.132;4.618;2023-07-13T03:23:25;4.97;;;1.50;;
60203;SDS011;46068;52.132;4.618;2023-07-13T03:26:00;8.40;;;1.38;;
60203;SDS011;46068;52.132;4.618;2023-07-13T03:28:27;12.35;;;1.98;;
60203;SDS011;46068;52.132;4.618;2023-07-13T03:30:58;10.60;;;1.67;;
60203;SDS011;46068;52.132;4.618;2023-07-13T03:33:24;7.82;;;1.40;;
60203;SDS011;46068;52.132;4.618;2023-07-13T03:35:51;6.65;;;1.73;;
60203;SDS011;46068;52.132;4.618;2023-07-13T03:38:19;8.82;;;2.08;;
60203;SDS011;46068;52.132;4.618;2023-07-13T03:40:45;11.25;;;1.80;;
60203;SDS011;46068;52.132;4.618;2023-07-13T03:43:11;11.00;;;1.90;;
60203;SDS011;46068;52.132;4.618;2023-07-13T03:45:38;8.50;;;1.80;;
60203;SDS011;46068;52.132;4.618;2023-07-13T03:48:04;8.50;;;1.63;;
60203;SDS011;46068;52.132;4.618;2023-07-13T03:50:31;14.30;;;2.40;;
60203;SDS011;46068;52.132;4.618;2023-07-13T03:52:57;8.68;;;2.10;;
60203;SDS011;46068;52.132;4.618;2023-07-13T03:55:25;10.98;;;1.80;;
60203;SDS011;46068;52.132;4.618;2023-07-13T03:57:54;12.20;;;2.72;;
60203;SDS011;46068;52.132;4.618;2023-07-13T04:00:23;10.38;;;2.20;;
60203;SDS011;46068;52.132;4.618;2023-07-13T04:02:50;8.50;;;2.30;;
60203;SDS011;46068;52.132;4.618;2023-07-13T04:05:16;14.85;;;2.50;;
60203;SDS011;46068;52.132;4.618;2023-07-13T04:07:42;12.07;;;2.70;;
60203;SDS011;46068;52.132;4.618;2023-07-13T04:10:09;17.80;;;2.90;;
60203;SDS011;46068;52.132;4.618;2023-07-13T04:12:36;13.77;;;2.30;;
60203;SDS011;46068;52.132;4.618;2023-07-13T04:15:03;10.25;;;2.70;;
60203;SDS011;46068;52.132;4.618;2023-07-13T04:17:30;11.38;;;2.60;;
60203;SDS011;46068;52.132;4.618;2023-07-13T04:19:56;12.10;;;2.85;;
60203;SDS011;46068;52.132;4.618;2023-07-13T04:22:23;10.57;;;2.55;;
60203;SDS011;46068;52.132;4.618;2023-07-13T04:24:49;9.93;;;2.03;;
60203;SDS011;46068;52.132;4.618;2023-07-13T04:27:15;19.05;;;3.25;;
60203;SDS011;46068;52.132;4.618;2023-07-13T04:29:43;15.73;;;3.47;;
60203;SDS011;46068;52.132;4.618;2023-07-13T04:32:10;16.58;;;2.60;;
60203;SDS011;46068;52.132;4.618;2023-07-13T04:34:36;13.40;;;2.90;;
60203;SDS011;46068;52.132;4.618;2023-07-13T04:37:02;14.05;;;2.72;;
60203;SDS011;46068;52.132;4.618;2023-07-13T04:39:29;19.35;;;3.53;;
60203;SDS011;46068;52.132;4.618;2023-07-13T04:41:56;14.25;;;2.78;;
60203;SDS011;46068;52.132;4.618;2023-07-13T04:44:22;16.60;;;3.53;;
60203;SDS011;46068;52.132;4.618;2023-07-13T04:46:50;15.05;;;3.22;;
60203;SDS011;46068;52.132;4.618;2023-07-13T04:49:16;13.75;;;2.88;;
60203;SDS011;46068;52.132;4.618;2023-07-13T04:51:43;17.40;;;3.35;;
60203;SDS011;46068;52.132;4.618;2023-07-13T04:54:09;17.65;;;3.33;;
60203;SDS011;46068;52.132;4.618;2023-07-13T04:56:36;15.43;;;3.42;;
60203;SDS011;46068;52.132;4.618;2023-07-13T04:59:02;14.75;;;2.78;;
60203;SDS011;46068;52.132;4.618;2023-07-13T05:01:28;18.88;;;3.05;;
60203;SDS011;46068;52.132;4.618;2023-07-13T05:03:57;13.50;;;2.47;;
60203;SDS011;46068;52.132;4.618;2023-07-13T05:06:24;16.88;;;3.25;;
60203;SDS011;46068;52.132;4.618;2023-07-13T05:08:50;18.70;;;3.20;;
60203;SDS011;46068;52.132;4.618;2023-07-13T05:11:17;14.60;;;3.00;;
60203;SDS011;46068;52.132;4.618;2023-07-13T05:13:44;10.82;;;3.13;;
60203;SDS011;46068;52.132;4.618;2023-07-13T05:16:10;21.65;;;2.97;;
60203;SDS011;46068;52.132;4.618;2023-07-13T05:18:37;15.82;;;2.70;;
60203;SDS011;46068;52.132;4.618;2023-07-13T05:21:05;15.15;;;2.78;;
60203;SDS011;46068;52.132;4.618;2023-07-13T05:23:32;14.60;;;2.55;;
60203;SDS011;46068;52.132;4.618;2023-07-13T05:25:59;14.45;;;2.72;;
60203;SDS011;46068;52.132;4.618;2023-07-13T05:28:26;12.55;;;2.50;;
60203;SDS011;46068;52.132;4.618;2023-07-13T05:30:53;11.10;;;2.42;;
60203;SDS011;46068;52.132;4.618;2023-07-13T05:33:20;8.40;;;1.95;;
60203;SDS011;46068;52.132;4.618;2023-07-13T05:35:47;14.73;;;2.75;;
60203;SDS011;46068;52.132;4.618;2023-07-13T05:38:14;10.82;;;2.15;;
60203;SDS011;46068;52.132;4.618;2023-07-13T05:40:42;12.63;;;2.00;;
60203;SDS011;46068;52.132;4.618;2023-07-13T05:43:08;10.30;;;2.17;;
60203;SDS011;46068;52.132;4.618;2023-07-13T05:45:35;11.57;;;2.30;;
60203;SDS011;46068;52.132;4.618;2023-07-13T05:48:01;6.53;;;1.98;;
60203;SDS011;46068;52.132;4.618;2023-07-13T05:50:28;10.13;;;2.17;;
60203;SDS011;46068;52.132;4.618;2023-07-13T05:52:54;12.88;;;2.70;;
60203;SDS011;46068;52.132;4.618;2023-07-13T05:55:23;11.35;;;2.35;;
60203;SDS011;46068;52.132;4.618;2023-07-13T05:57:49;11.57;;;2.78;;
60203;SDS011;46068;52.132;4.618;2023-07-13T06:00:16;7.70;;;1.80;;
60203;SDS011;46068;52.132;4.618;2023-07-13T06:02:42;8.68;;;2.22;;
60203;SDS011;46068;52.132;4.618;2023-07-13T06:05:09;6.10;;;1.95;;
60203;SDS011;46068;52.132;4.618;2023-07-13T06:07:35;6.97;;;1.75;;
60203;SDS011;46068;52.132;4.618;2023-07-13T06:10:02;7.70;;;2.00;;
60203;SDS011;46068;52.132;4.618;2023-07-13T06:12:29;8.68;;;1.80;;
60203;SDS011;46068;52.132;4.618;2023-07-13T06:14:56;5.90;;;2.00;;
60203;SDS011;46068;52.132;4.618;2023-07-13T06:17:22;5.65;;;1.73;;
60203;SDS011;46068;52.132;4.618;2023-07-13T06:19:48;7.28;;;1.80;;
60203;SDS011;46068;52.132;4.618;2023-07-13T06:22:15;11.25;;;1.80;;
60203;SDS011;46068;52.132;4.618;2023-07-13T06:24:41;11.82;;;2.38;;
60203;SDS011;46068;52.132;4.618;2023-07-13T06:27:07;7.45;;;1.80;;
60203;SDS011;46068;52.132;4.618;2023-07-13T06:29:35;11.25;;;2.20;;
60203;SDS011;46068;52.132;4.618;2023-07-13T06:32:01;10.73;;;2.28;;
60203;SDS011;46068;52.132;4.618;2023-07-13T06:34:28;7.05;;;2.15;;
60203;SDS011;46068;52.132;4.618;2023-07-13T06:36:54;7.25;;;2.13;;
60203;SDS011;46068;52.132;4.618;2023-07-13T06:39:21;10.27;;;2.38;;
60203;SDS011;46068;52.132;4.618;2023-07-13T06:41:47;4.88;;;1.52;;
60203;SDS011;46068;52.132;4.618;2023-07-13T06:44:13;6.38;;;1.88;;
60203;SDS011;46068;52.132;4.618;2023-07-13T06:46:41;6.03;;;1.90;;
60203;SDS011;46068;52.132;4.618;2023-07-13T06:49:08;8.40;;;2.00;;
60203;SDS011;46068;52.132;4.618;2023-07-13T06:51:34;7.75;;;1.70;;
60203;SDS011;46068;52.132;4.618;2023-07-13T06:54:01;6.53;;;1.75;;
60203;SDS011;46068;52.132;4.618;2023-07-13T06:56:27;8.55;;;2.00;;
60203;SDS011;46068;52.132;4.618;2023-07-13T06:58:53;6.30;;;1.80;;
60203;SDS011;46068;52.132;4.618;2023-07-13T07:01:20;10.13;;;2.28;;
60203;SDS011;46068;52.132;4.618;2023-07-13T07:03:47;8.00;;;2.22;;
60203;SDS011;46068;52.132;4.618;2023-07-13T07:06:15;6.10;;;1.80;;
60203;SDS011;46068;52.132;4.618;2023-07-13T07:08:41;10.32;;;2.20;;
60203;SDS011;46068;52.132;4.618;2023-07-13T07:11:08;6.72;;;2.13;;
60203;SDS011;46068;52.132;4.618;2023-07-13T07:13:35;6.35;;;1.80;;
60203;SDS011;46068;52.132;4.618;2023-07-13T07:16:01;9.82;;;2.03;;
60203;SDS011;46068;52.132;4.618;2023-07-13T07:18:28;8.48;;;1.85;;
60203;SDS011;46068;52.132;4.618;2023-07-13T07:20:55;8.57;;;2.22;;
60203;SDS011;46068;52.132;4.618;2023-07-13T07:23:22;9.35;;;2.38;;
60203;SDS011;46068;52.132;4.618;2023-07-13T07:25:48;8.57;;;1.80;;
60203;SDS011;46068;52.132;4.618;2023-07-13T07:28:16;7.28;;;1.80;;
60203;SDS011;46068;52.132;4.618;2023-07-13T07:30:44;6.28;;;1.80;;
60203;SDS011;46068;52.132;4.618;2023-07-13T07:33:10;5.55;;;1.55;;
60203;SDS011;46068;52.132;4.618;2023-07-13T07:35:37;9.35;;;2.22;;
60203;SDS011;46068;52.132;4.618;2023-07-13T07:38:04;6.97;;;1.70;;
60203;SDS011;46068;52.132;4.618;2023-07-13T07:40:31;6.85;;;1.67;;
60203;SDS011;46068;52.132;4.618;2023-07-13T07:42:58;9.05;;;2.10;;
60203;SDS011;46068;52.132;4.618;2023-07-13T07:45:26;6.63;;;1.75;;
60203;SDS011;46068;52.132;4.618;2023-07-13T07:47:52;9.52;;;1.63;;
60203;SDS011;46068;52.132;4.618;2023-07-13T07:50:20;5.63;;;1.80;;
60203;SDS011;46068;52.132;4.618;2023-07-13T07:52:46;7.88;;;1.98;;
60203;SDS011;46068;52.132;4.618;2023-07-13T07:55:14;10.40;;;2.13;;
60203;SDS011;46068;52.132;4.618;2023-07-13T07:57:40;8.27;;;2.47;;
60203;SDS011;46068;52.132;4.618;2023-07-13T08:00:07;6.63;;;1.95;;
60203;SDS011;46068;52.132;4.618;2023-07-13T08:02:34;7.18;;;2.42;;
60203;SDS011;46068;52.132;4.618;2023-07-13T08:05:00;8.90;;;2.00;;
60203;SDS011;46068;52.132;4.618;2023-07-13T08:07:26;8.18;;;2.05;;
60203;SDS011;46068;52.132;4.618;2023-07-13T08:09:53;6.55;;;2.00;;
60203;SDS011;46068;52.132;4.618;2023-07-13T08:12:20;10.65;;;2.05;;
60203;SDS011;46068;52.132;4.618;2023-07-13T08:14:49;10.10;;;2.55;;
60203;SDS011;46068;52.132;4.618;2023-07-13T08:17:18;5.13;;;1.83;;
60203;SDS011;46068;52.132;4.618;2023-07-13T08:19:45;5.22;;;1.65;;
60203;SDS011;46068;52.132;4.618;2023-07-13T08:22:11;6.95;;;1.83;;
60203;SDS011;46068;52.132;4.618;2023-07-13T08:24:38;5.15;;;2.03;;
60203;SDS011;46068;52.132;4.618;2023-07-13T08:27:04;6.05;;;2.03;;
60203;SDS011;46068;52.132;4.618;2023-07-13T08:29:32;7.22;;;1.67;;
60203;SDS011;46068;52.132;4.618;2023-07-13T08:31:59;5.20;;;1.70;;
60203;SDS011;46068;52.132;4.618;2023-07-13T08:34:25;11.48;;;2.17;;
60203;SDS011;46068;52.132;4.618;2023-07-13T08:36:51;11.10;;;3.03;;
60203;SDS011;46068;52.132;4.618;2023-07-13T08:39:18;8.38;;;2.17;;
60203;SDS011;46068;52.132;4.618;2023-07-13T08:41:44;3.72;;;1.80;;
60203;SDS011;46068;52.132;4.618;2023-07-13T08:44:17;8.68;;;1.83;;
60203;SDS011;46068;52.132;4.618;2023-07-13T08:46:46;5.18;;;1.73;;
60203;SDS011;46068;52.132;4.618;2023-07-13T08:49:15;11.02;;;2.08;;
60203;SDS011;46068;52.132;4.618;2023-07-13T08:51:43;6.03;;;1.83;;
60203;SDS011;46068;52.132;4.618;2023-07-13T08:54:19;6.97;;;1.90;;
60203;SDS011;46068;52.132;4.618;2023-07-13T08:56:46;5.75;;;1.75;;
60203;SDS011;46068;52.132;4.618;2023-07-13T08:59:15;6.50;;;1.67;;
60203;SDS011;46068;52.132;4.618;2023-07-13T09:01:47;9.13;;;2.30;;
60203;SDS011;46068;52.132;4.618;2023-07-13T09:04:16;6.05;;;1.90;;
60203;SDS011;46068;52.132;4.618;2023-07-13T09:06:48;6.47;;;1.98;;
60203;SDS011;46068;52.132;4.618;2023-07-13T09:09:18;10.27;;;2.17;;
60203;SDS011;46068;52.132;4.618;2023-07-13T09:11:49;9.38;;;2.08;;
60203;SDS011;46068;52.132;4.618;2023-07-13T09:17:10;10.82;;;1.80;;
60203;SDS011;46068;52.132;4.618;2023-07-13T09:19:38;7.25;;;1.80;;
60203;SDS011;46068;52.132;4.618;2023-07-13T09:22:08;6.55;;;2.00;;
60203;SDS011;46068;52.132;4.618;2023-07-13T09:24:37;6.43;;;2.20;;
60203;SDS011;46068;52.132;4.618;2023-07-13T09:27:09;8.15;;;2.03;;
60203;SDS011;46068;52.132;4.618;2023-07-13T09:29:38;7.88;;;2.20;;
60203;SDS011;46068;52.132;4.618;2023-07-13T09:32:10;8.20;;;2.17;;
60203;SDS011;46068;52.132;4.618;2023-07-13T09:34:38;5.10;;;1.98;;
60203;SDS011;46068;52.132;4.618;2023-07-13T09:37:04;7.10;;;2.20;;
60203;SDS011;46068;52.132;4.618;2023-07-13T09:39:32;9.90;;;2.00;;
60203;SDS011;46068;52.132;4.618;2023-07-13T09:42:01;7.60;;;1.85;;
60203;SDS011;46068;52.132;4.618;2023-07-13T09:44:30;9.10;;;2.20;;
60203;SDS011;46068;52.132;4.618;2023-07-13T09:46:57;5.38;;;1.92;;
60203;SDS011;46068;52.132;4.618;2023-07-13T09:49:25;5.72;;;1.55;;
60203;SDS011;46068;52.132;4.618;2023-07-13T09:51:59;8.05;;;1.98;;
60203;SDS011;46068;52.132;4.618;2023-07-13T09:54:27;6.15;;;1.85;;
60203;SDS011;46068;52.132;4.618;2023-07-13T09:56:54;7.57;;;1.63;;
60203;SDS011;46068;52.132;4.618;2023-07-13T09:59:21;4.75;;;1.83;;
60203;SDS011;46068;52.132;4.618;2023-07-13T10:01:49;9.57;;;2.42;;
60203;SDS011;46068;52.132;4.618;2023-07-13T10:04:16;6.88;;;2.00;;
60203;SDS011;46068;52.132;4.618;2023-07-13T10:06:45;5.35;;;1.70;;
60203;SDS011;46068;52.132;4.618;2023-07-13T10:09:14;7.10;;;1.80;;
60203;SDS011;46068;52.132;4.618;2023-07-13T10:11:41;9.23;;;2.00;;
60203;SDS011;46068;52.132;4.618;2023-07-13T10:14:11;7.28;;;1.90;;
60203;SDS011;46068;52.132;4.618;2023-07-13T10:16:38;9.77;;;2.28;;
60203;SDS011;46068;52.132;4.618;2023-07-13T10:19:10;3.50;;;1.50;;
60203;SDS011;46068;52.132;4.618;2023-07-13T10:21:38;5.20;;;1.52;;
60203;SDS011;46068;52.132;4.618;2023-07-13T10:24:10;4.32;;;1.85;;
60203;SDS011;46068;52.132;4.618;2023-07-13T10:26:39;6.65;;;1.70;;
60203;SDS011;46068;52.132;4.618;2023-07-13T10:29:11;6.45;;;2.00;;
60203;SDS011;46068;52.132;4.618;2023-07-13T10:31:38;5.70;;;1.90;;
60203;SDS011;46068;52.132;4.618;2023-07-13T10:34:05;4.80;;;1.77;;
60203;SDS011;46068;52.132;4.618;2023-07-13T10:36:32;7.60;;;1.90;;
60203;SDS011;46068;52.132;4.618;2023-07-13T10:39:01;10.45;;;2.10;;
60203;SDS011;46068;52.132;4.618;2023-07-13T10:41:32;6.68;;;2.00;;
60203;SDS011;46068;52.132;4.618;2023-07-13T10:44:00;7.05;;;1.98;;
60203;SDS011;46068;52.132;4.618;2023-07-13T10:46:28;5.93;;;2.05;;
60203;SDS011;46068;52.132;4.618;2023-07-13T10:48:56;9.10;;;2.00;;
60203;SDS011;46068;52.132;4.618;2023-07-13T10:51:23;7.00;;;2.05;;
60203;SDS011;46068;52.132;4.618;2023-07-13T10:56:34;8.23;;;1.70;;
60203;SDS011;46068;52.132;4.618;2023-07-13T10:59:09;6.38;;;2.08;;
60203;SDS011;46068;52.132;4.618;2023-07-13T11:01:40;7.57;;;1.60;;
60203;SDS011;46068;52.132;4.618;2023-07-13T11:04:08;9.10;;;1.88;;
60203;SDS011;46068;52.132;4.618;2023-07-13T11:06:38;7.63;;;1.88;;
60203;SDS011;46068;52.132;4.618;2023-07-13T11:09:17;4.57;;;1.90;;
60203;SDS011;46068;52.132;4.618;2023-07-13T11:11:45;7.72;;;2.00;;
60203;SDS011;46068;52.132;4.618;2023-07-13T11:14:29;8.18;;;2.05;;
60203;SDS011;46068;52.132;4.618;2023-07-13T11:16:55;5.80;;;1.70;;
60203;SDS011;46068;52.132;4.618;2023-07-13T11:22:15;5.00;;;1.73;;
60203;SDS011;46068;52.132;4.618;2023-07-13T11:24:49;5.47;;;1.85;;
60203;SDS011;46068;52.132;4.618;2023-07-13T11:27:21;7.28;;;1.83;;
60203;SDS011;46068;52.132;4.618;2023-07-13T11:29:48;4.22;;;1.42;;
60203;SDS011;46068;52.132;4.618;2023-07-13T11:32:22;3.83;;;1.70;;
60203;SDS011;46068;52.132;4.618;2023-07-13T11:34:48;5.03;;;1.77;;
60203;SDS011;46068;52.132;4.618;2023-07-13T11:37:16;7.18;;;1.67;;
60203;SDS011;46068;52.132;4.618;2023-07-13T11:39:44;5.20;;;1.67;;
60203;SDS011;46068;52.132;4.618;2023-07-13T11:42:12;6.18;;;1.80;;
60203;SDS011;46068;52.132;4.618;2023-07-13T11:44:43;8.73;;;2.13;;
60203;SDS011;46068;52.132;4.618;2023-07-13T11:47:10;4.90;;;2.00;;
60203;SDS011;46068;52.132;4.618;2023-07-13T11:49:41;6.82;;;2.00;;
60203;SDS011;46068;52.132;4.618;2023-07-13T11:52:10;4.78;;;1.70;;
60203;SDS011;46068;52.132;4.618;2023-07-13T11:54:43;4.57;;;1.75;;
60203;SDS011;46068;52.132;4.618;2023-07-13T11:57:17;4.72;;;1.70;;
60203;SDS011;46068;52.132;4.618;2023-07-13T11:59:49;7.38;;;2.25;;
60203;SDS011;46068;52.132;4.618;2023-07-13T12:02:17;6.43;;;2.00;;
60203;SDS011;46068;52.132;4.618;2023-07-13T12:04:49;4.18;;;1.65;;
60203;SDS011;46068;52.132;4.618;2023-07-13T12:07:18;5.35;;;1.67;;
60203;SDS011;46068;52.132;4.618;2023-07-13T12:09:45;5.13;;;1.60;;
60203;SDS011;46068;52.132;4.618;2023-07-13T12:12:12;5.95;;;1.80;;
60203;SDS011;46068;52.132;4.618;2023-07-13T12:14:39;5.07;;;2.13;;
60203;SDS011;46068;52.132;4.618;2023-07-13T12:17:09;5.47;;;1.67;;
60203;SDS011;46068;52.132;4.618;2023-07-13T12:19:39;6.47;;;1.77;;
60203;SDS011;46068;52.132;4.618;2023-07-13T12:22:08;4.97;;;1.80;;
60203;SDS011;46068;52.132;4.618;2023-07-13T12:24:37;4.75;;;1.58;;
60203;SDS011;46068;52.132;4.618;2023-07-13T12:27:04;3.42;;;1.52;;
60203;SDS011;46068;52.132;4.618;2023-07-13T12:29:31;7.03;;;1.85;;
60203;SDS011;46068;52.132;4.618;2023-07-13T12:31:58;4.07;;;1.58;;
60203;SDS011;46068;52.132;4.618;2023-07-13T12:34:26;9.13;;;1.52;;
60203;SDS011;46068;52.132;4.618;2023-07-13T12:36:54;3.75;;;1.25;;
60203;SDS011;46068;52.132;4.618;2023-07-13T12:39:23;6.45;;;1.70;;
60203;SDS011;46068;52.132;4.618;2023-07-13T12:41:50;3.65;;;1.40;;
60203;SDS011;46068;52.132;4.618;2023-07-13T12:44:17;2.90;;;1.17;;
60203;SDS011;46068;52.132;4.618;2023-07-13T12:46:53;3.85;;;1.58;;
60203;SDS011;46068;52.132;4.618;2023-07-13T12:49:23;2.83;;;1.42;;
60203;SDS011;46068;52.132;4.618;2023-07-13T12:51:55;5.25;;;1.42;;
60203;SDS011;46068;52.132;4.618;2023-07-13T12:54:22;4.07;;;1.48;;
60203;SDS011;46068;52.132;4.618;2023-07-13T12:56:49;3.58;;;1.52;;
60203;SDS011;46068;52.132;4.618;2023-07-13T12:59:20;3.72;;;1.38;;
60203;SDS011;46068;52.132;4.618;2023-07-13T13:01:47;4.28;;;1.60;;
60203;SDS011;46068;52.132;4.618;2023-07-13T13:04:14;3.38;;;1.80;;
60203;SDS011;46068;52.132;4.618;2023-07-13T13:06:41;2.95;;;1.60;;
60203;SDS011;46068;52.132;4.618;2023-07-13T13:09:11;5.20;;;1.58;;
60203;SDS011;46068;52.132;4.618;2023-07-13T13:11:38;4.30;;;1.38;;
60203;SDS011;46068;52.132;4.618;2023-07-13T13:14:05;5.15;;;1.80;;
60203;SDS011;46068;52.132;4.618;2023-07-13T13:16:33;5.18;;;1.60;;
60203;SDS011;46068;52.132;4.618;2023-07-13T13:19:00;4.78;;;1.60;;
60203;SDS011;46068;52.132;4.618;2023-07-13T13:21:27;4.97;;;1.92;;
60203;SDS011;46068;52.132;4.618;2023-07-13T13:23:54;4.47;;;1.50;;
60203;SDS011;46068;52.132;4.618;2023-07-13T13:26:22;8.25;;;2.22;;
60203;SDS011;46068;52.132;4.618;2023-07-13T13:28:48;3.95;;;1.35;;
60203;SDS011;46068;52.132;4.618;2023-07-13T13:31:15;6.32;;;1.75;;
60203;SDS011;46068;52.132;4.618;2023-07-13T13:33:42;4.95;;;1.60;;
60203;SDS011;46068;52.132;4.618;2023-07-13T13:36:14;7.55;;;1.70;;
60203;SDS011;46068;52.132;4.618;2023-07-13T13:38:42;4.20;;;1.38;;
60203;SDS011;46068;52.132;4.618;2023-07-13T13:41:09;4.43;;;1.58;;
60203;SDS011;46068;52.132;4.618;2023-07-13T13:43:37;7.95;;;1.90;;
60203;SDS011;46068;52.132;4.618;2023-07-13T13:46:09;3.85;;;1.42;;
60203;SDS011;46068;52.132;4.618;2023-07-13T13:48:39;2.90;;;1.30;;
60203;SDS011;46068;52.132;4.618;2023-07-13T13:51:13;5.18;;;1.80;;
60203;SDS011;46068;52.132;4.618;2023-07-13T13:53:40;5.78;;;1.70;;
60203;SDS011;46068;52.132;4.618;2023-07-13T13:56:06;5.28;;;1.80;;
60203;SDS011;46068;52.132;4.618;2023-07-13T13:58:33;3.88;;;1.50;;
60203;SDS011;46068;52.132;4.618;2023-07-13T14:01:00;4.82;;;1.27;;
60203;SDS011;46068;52.132;4.618;2023-07-13T14:03:27;5.57;;;1.50;;
60203;SDS011;46068;52.132;4.618;2023-07-13T14:05:53;4.43;;;1.50;;
60203;SDS011;46068;52.132;4.618;2023-07-13T14:08:22;3.53;;;1.38;;
60203;SDS011;46068;52.132;4.618;2023-07-13T14:10:49;5.38;;;1.70;;
60203;SDS011;46068;52.132;4.618;2023-07-13T14:13:17;10.02;;;1.83;;
60203;SDS011;46068;52.132;4.618;2023-07-13T14:15:44;5.45;;;1.30;;
60203;SDS011;46068;52.132;4.618;2023-07-13T14:18:12;5.32;;;1.42;;
60203;SDS011;46068;52.132;4.618;2023-07-13T14:20:42;3.58;;;1.38;;
60203;SDS011;46068;52.132;4.618;2023-07-13T14:23:09;4.55;;;1.40;;
60203;SDS011;46068;52.132;4.618;2023-07-13T14:25:35;4.60;;;1.20;;
60203;SDS011;46068;52.132;4.618;2023-07-13T14:28:04;4.90;;;1.40;;
60203;SDS011;46068;52.132;4.618;2023-07-13T14:30:37;4.20;;;1.38;;
60203;SDS011;46068;52.132;4.618;2023-07-13T14:33:04;5.40;;;1.77;;
60203;SDS011;46068;52.132;4.618;2023-07-13T14:35:35;4.18;;;1.13;;
60203;SDS011;46068;52.132;4.618;2023-07-13T14:38:02;4.75;;;1.50;;
60203;SDS011;46068;52.132;4.618;2023-07-13T14:40:29;4.80;;;1.35;;
60203;SDS011;46068;52.132;4.618;2023-07-13T14:42:56;7.28;;;1.70;;
60203;SDS011;46068;52.132;4.618;2023-07-13T14:45:22;4.20;;;1.45;;
60203;SDS011;46068;52.132;4.618;2023-07-13T14:47:49;7.05;;;1.55;;
60203;SDS011;46068;52.132;4.618;2023-07-13T14:50:16;7.13;;;1.75;;
60203;SDS011;46068;52.132;4.618;2023-07-13T14:52:44;4.78;;;1.65;;
60203;SDS011;46068;52.132;4.618;2023-07-13T14:55:11;4.85;;;1.50;;